createdAt,value
2019-03-26T00:01:54.476Z,4.50
2019-03-26T00:04:22.868Z,4.80
2019-03-26T00:06:51.268Z,4.77
2019-03-26T00:09:19.659Z,4.63
2019-03-26T00:11:48.318Z,4.40
2019-03-26T00:14:16.703Z,4.33
2019-03-26T00:16:45.100Z,4.73
2019-03-26T00:19:13.589Z,4.37
2019-03-26T00:21:41.982Z,4.43
2019-03-26T00:24:10.533Z,4.20
2019-03-26T00:26:38.936Z,4.80
2019-03-26T00:29:07.344Z,4.73
2019-03-26T00:31:35.738Z,4.60
2019-03-26T00:34:04.193Z,4.73
2019-03-26T00:36:32.608Z,6.57
2019-03-26T00:39:01.093Z,6.97
2019-03-26T00:41:29.490Z,6.90
2019-03-26T00:43:57.882Z,7.80
2019-03-26T00:46:26.305Z,7.30
2019-03-26T00:48:54.704Z,6.20
2019-03-26T00:51:23.125Z,5.77
2019-03-26T00:53:51.521Z,4.97
2019-03-26T00:56:19.929Z,4.57
2019-03-26T00:58:48.323Z,4.57
2019-03-26T01:01:17.058Z,4.87
2019-03-26T01:03:45.458Z,4.97
2019-03-26T01:06:13.867Z,6.93
2019-03-26T01:08:42.266Z,10.10
2019-03-26T01:11:10.853Z,8.27
2019-03-26T01:13:39.264Z,5.60
2019-03-26T01:16:07.711Z,5.50
2019-03-26T01:18:36.101Z,5.60
2019-03-26T01:21:04.574Z,5.30
2019-03-26T01:23:32.969Z,5.30
2019-03-26T01:26:01.388Z,5.70
2019-03-26T01:28:29.793Z,6.13
2019-03-26T01:30:58.184Z,6.67
2019-03-26T01:33:26.597Z,6.43
2019-03-26T01:35:54.985Z,6.80
2019-03-26T01:38:23.408Z,6.33
2019-03-26T01:40:51.918Z,5.97
2019-03-26T01:43:20.335Z,6.60
2019-03-26T01:45:48.733Z,5.33
2019-03-26T01:48:17.146Z,4.93
2019-03-26T01:50:45.536Z,5.83
2019-03-26T01:53:13.972Z,5.13
2019-03-26T01:55:42.357Z,5.63
2019-03-26T01:58:10.780Z,5.27
2019-03-26T02:00:39.169Z,5.30
2019-03-26T02:03:07.584Z,5.23
2019-03-26T02:05:35.980Z,4.87
2019-03-26T02:08:04.501Z,5.30
2019-03-26T02:10:32.902Z,5.60
2019-03-26T02:13:01.404Z,5.43
2019-03-26T02:15:31.132Z,5.43
2019-03-26T02:18:00.246Z,6.97
2019-03-26T02:20:28.780Z,6.60
2019-03-26T02:22:57.386Z,6.87
2019-03-26T02:25:25.826Z,6.90
2019-03-26T02:27:54.305Z,6.30
2019-03-26T02:30:22.724Z,7.00
2019-03-26T02:32:51.166Z,6.27
2019-03-26T02:35:19.702Z,6.57
2019-03-26T02:37:48.098Z,7.20
2019-03-26T02:40:16.479Z,6.93
2019-03-26T02:42:44.888Z,6.43
2019-03-26T02:45:13.428Z,6.43
2019-03-26T02:47:41.828Z,6.50
2019-03-26T02:50:10.749Z,5.90
2019-03-26T02:52:39.140Z,6.00
2019-03-26T02:55:07.846Z,6.50
2019-03-26T02:57:36.407Z,6.17
2019-03-26T03:00:07.174Z,8.43
2019-03-26T03:02:35.635Z,9.87
2019-03-26T03:05:04.337Z,10.23
2019-03-26T03:07:32.740Z,11.83
2019-03-26T03:10:01.203Z,11.60
2019-03-26T03:12:29.610Z,11.23
2019-03-26T03:14:58.027Z,10.47
2019-03-26T03:17:26.418Z,9.63
2019-03-26T03:19:54.812Z,8.70
2019-03-26T03:22:23.294Z,8.67
2019-03-26T03:24:51.759Z,7.40
2019-03-26T03:27:20.150Z,8.23
2019-03-26T03:29:48.555Z,9.37
2019-03-26T03:32:16.969Z,10.23
2019-03-26T03:34:45.377Z,11.97
2019-03-26T03:37:13.789Z,10.93
2019-03-26T03:39:42.186Z,9.33
2019-03-26T03:42:10.737Z,8.87
2019-03-26T03:44:39.206Z,8.10
2019-03-26T03:47:08.149Z,7.73
2019-03-26T03:49:37.092Z,7.40
2019-03-26T03:52:05.968Z,6.70
2019-03-26T03:54:36.511Z,6.00
2019-03-26T03:57:06.139Z,7.00
2019-03-26T03:59:34.817Z,21.00
2019-03-26T04:02:03.330Z,10.53
2019-03-26T04:04:31.776Z,9.47
2019-03-26T04:07:00.253Z,9.47
2019-03-26T04:09:28.661Z,8.27
2019-03-26T04:11:57.060Z,8.20
2019-03-26T04:14:25.454Z,8.67
2019-03-26T04:16:53.849Z,7.73
2019-03-26T04:19:22.280Z,7.73
2019-03-26T04:21:50.681Z,7.40
2019-03-26T04:24:19.140Z,8.37
2019-03-26T04:28:35.014Z,8.43
2019-03-26T04:31:03.500Z,8.47
2019-03-26T04:33:31.906Z,7.77
2019-03-26T04:36:00.295Z,7.63
2019-03-26T04:38:28.715Z,7.47
2019-03-26T04:40:57.227Z,7.80
2019-03-26T04:43:25.691Z,8.20
2019-03-26T04:45:54.065Z,8.57
2019-03-26T04:48:22.488Z,9.00
2019-03-26T04:50:50.895Z,7.53
2019-03-26T04:53:19.323Z,6.97
2019-03-26T04:55:47.717Z,7.60
2019-03-26T04:58:16.121Z,7.03
2019-03-26T05:00:44.587Z,6.93
2019-03-26T05:03:13.056Z,7.23
2019-03-26T05:05:41.459Z,7.20
2019-03-26T05:08:09.859Z,5.97
2019-03-26T05:10:38.262Z,6.00
2019-03-26T05:13:06.667Z,6.40
2019-03-26T05:15:35.093Z,6.80
2019-03-26T05:18:03.549Z,7.10
2019-03-26T05:20:31.959Z,7.30
2019-03-26T05:23:00.368Z,7.47
2019-03-26T05:25:28.847Z,10.90
2019-03-26T05:27:57.253Z,8.13
2019-03-26T05:30:25.765Z,11.23
2019-03-26T05:32:54.240Z,8.53
2019-03-26T05:35:22.722Z,8.00
2019-03-26T05:37:51.216Z,6.57
2019-03-26T05:40:19.602Z,7.77
2019-03-26T05:42:48.076Z,7.77
2019-03-26T05:45:16.488Z,8.67
2019-03-26T05:47:44.891Z,8.80
2019-03-26T05:50:15.212Z,10.90
2019-03-26T05:52:43.644Z,13.70
2019-03-26T05:55:12.317Z,12.60
2019-03-26T05:57:40.806Z,10.97
2019-03-26T06:00:13.806Z,10.43
2019-03-26T06:02:42.290Z,9.97
2019-03-26T06:05:13.983Z,10.70
2019-03-26T06:07:42.377Z,12.07
2019-03-26T06:10:11.224Z,12.60
2019-03-26T06:12:39.704Z,13.03
2019-03-26T06:15:10.357Z,13.13
2019-03-26T06:17:38.842Z,11.47
2019-03-26T06:20:08.183Z,21.53
2019-03-26T06:22:36.578Z,21.40
2019-03-26T06:25:07.650Z,11.27
2019-03-26T06:27:36.108Z,10.53
2019-03-26T06:30:07.186Z,10.97
2019-03-26T06:32:35.600Z,10.53
2019-03-26T06:35:08.750Z,10.83
2019-03-26T06:37:37.339Z,10.40
2019-03-26T06:40:09.784Z,10.53
2019-03-26T06:42:38.272Z,11.63
2019-03-26T06:45:08.412Z,11.33
2019-03-26T06:47:36.921Z,11.67
2019-03-26T06:50:10.247Z,12.20
2019-03-26T06:52:39.060Z,11.83
2019-03-26T06:55:08.215Z,11.57
2019-03-26T06:57:37.061Z,11.03
2019-03-26T07:00:11.196Z,9.60
2019-03-26T07:02:39.670Z,10.27
2019-03-26T07:05:08.805Z,9.80
2019-03-26T07:07:37.201Z,11.50
2019-03-26T07:10:07.943Z,10.70
2019-03-26T07:12:36.447Z,11.13
2019-03-26T07:15:07.651Z,11.87
2019-03-26T07:17:36.142Z,10.70
2019-03-26T07:20:07.390Z,14.60
2019-03-26T07:22:35.815Z,15.27
2019-03-26T07:25:06.511Z,13.60
2019-03-26T07:27:34.922Z,19.40
2019-03-26T07:30:03.978Z,13.40
2019-03-26T07:32:32.388Z,11.68
2019-03-26T07:35:00.827Z,11.57
2019-03-26T07:37:29.234Z,8.95
2019-03-26T07:39:57.830Z,8.03
2019-03-26T07:42:26.238Z,6.03
2019-03-26T07:44:54.743Z,5.95
2019-03-26T07:47:23.217Z,5.50
2019-03-26T07:49:51.742Z,4.55
2019-03-26T07:52:20.153Z,4.20
2019-03-26T07:54:48.556Z,4.40
2019-03-26T07:57:17.036Z,3.60
2019-03-26T07:59:45.474Z,3.27
2019-03-26T08:02:13.969Z,3.00
2019-03-26T08:04:42.365Z,3.75
2019-03-26T08:07:10.773Z,3.90
2019-03-26T08:09:39.167Z,6.40
2019-03-26T08:12:07.578Z,4.40
2019-03-26T08:14:36.104Z,3.33
2019-03-26T08:17:04.624Z,9.78
2019-03-26T08:19:33.085Z,8.50
2019-03-26T08:22:01.517Z,2.90
2019-03-26T08:24:32.047Z,2.98
2019-03-26T08:27:00.448Z,2.52
2019-03-26T08:29:28.853Z,2.22
2019-03-26T08:31:57.304Z,2.40
2019-03-26T08:34:25.783Z,2.53
2019-03-26T08:36:54.194Z,3.27
2019-03-26T08:39:22.623Z,3.27
2019-03-26T08:41:51.031Z,2.63
2019-03-26T08:44:19.449Z,3.23
2019-03-26T08:46:47.883Z,3.00
2019-03-26T08:49:16.283Z,3.23
2019-03-26T08:51:44.743Z,4.60
2019-03-26T08:54:13.158Z,3.40
2019-03-26T08:56:41.566Z,3.00
2019-03-26T08:59:10.030Z,3.97
2019-03-26T09:01:38.568Z,2.60
2019-03-26T09:04:07.047Z,2.33
2019-03-26T09:06:35.698Z,2.83
2019-03-26T09:09:06.549Z,2.10
2019-03-26T09:11:34.943Z,2.20
2019-03-26T09:14:03.508Z,1.70
2019-03-26T09:16:32.070Z,2.57
2019-03-26T09:19:00.517Z,2.73
2019-03-26T09:21:29.008Z,2.70
2019-03-26T09:23:57.425Z,2.23
2019-03-26T09:26:25.821Z,2.40
2019-03-26T09:28:54.235Z,2.67
2019-03-26T09:31:22.795Z,2.70
2019-03-26T09:33:51.203Z,2.90
2019-03-26T09:36:19.693Z,2.80
2019-03-26T09:38:48.176Z,2.13
2019-03-26T09:41:16.579Z,1.87
2019-03-26T09:43:44.985Z,2.37
2019-03-26T09:46:13.456Z,2.33
2019-03-26T09:48:41.928Z,1.90
2019-03-26T09:51:10.942Z,1.80
2019-03-26T09:53:39.500Z,2.00
2019-03-26T09:56:07.913Z,1.90
2019-03-26T09:58:36.300Z,2.57
2019-03-26T10:01:04.893Z,2.13
2019-03-26T10:03:33.356Z,2.53
2019-03-26T10:06:01.870Z,2.80
2019-03-26T10:08:30.361Z,2.57
2019-03-26T10:10:58.836Z,2.47
2019-03-26T10:13:27.240Z,2.80
2019-03-26T10:15:55.672Z,1.80
2019-03-26T10:18:24.178Z,1.70
2019-03-26T10:20:52.613Z,1.90
2019-03-26T10:23:21.016Z,1.40
2019-03-26T10:25:49.513Z,1.50
2019-03-26T10:28:17.914Z,1.13
2019-03-26T10:30:46.410Z,1.87
2019-03-26T10:33:14.794Z,1.63
2019-03-26T10:35:43.291Z,2.10
2019-03-26T10:38:11.719Z,1.53
2019-03-26T10:40:40.390Z,1.37
2019-03-26T10:43:08.935Z,1.10
2019-03-26T10:45:37.405Z,1.63
2019-03-26T10:48:05.968Z,1.00
2019-03-26T10:50:34.375Z,1.20
2019-03-26T10:53:02.830Z,1.70
2019-03-26T10:55:31.368Z,1.80
2019-03-26T10:57:59.807Z,3.00
2019-03-26T11:00:28.278Z,2.10
2019-03-26T11:02:56.739Z,2.13
2019-03-26T11:05:25.520Z,2.40
2019-03-26T11:07:53.991Z,2.00
2019-03-26T11:10:22.401Z,1.93
2019-03-26T11:12:50.819Z,2.23
2019-03-26T11:15:38.559Z,2.73
2019-03-26T11:18:07.237Z,2.57
2019-03-26T11:20:35.676Z,2.53
2019-03-26T11:23:04.164Z,2.63
2019-03-26T11:25:32.659Z,3.00
2019-03-26T11:28:01.098Z,3.40
2019-03-26T11:30:29.659Z,3.40
2019-03-26T11:32:58.180Z,3.37
2019-03-26T11:35:26.663Z,3.80
2019-03-26T11:37:55.140Z,4.15
2019-03-26T11:40:23.605Z,3.80
2019-03-26T11:42:52.064Z,4.45
2019-03-26T11:45:20.711Z,4.13
2019-03-26T11:47:50.664Z,4.47
2019-03-26T11:50:19.304Z,5.45
2019-03-26T11:52:47.833Z,4.80
2019-03-26T11:55:16.466Z,5.33
2019-03-26T11:57:45.013Z,5.17
2019-03-26T12:00:17.071Z,5.47
2019-03-26T12:02:45.488Z,6.12
2019-03-26T12:05:14.033Z,5.80
2019-03-26T12:07:43.059Z,6.07
2019-03-26T12:10:13.225Z,6.30
2019-03-26T12:12:41.719Z,6.80
2019-03-26T12:15:11.741Z,6.33
2019-03-26T12:17:40.140Z,7.00
2019-03-26T12:20:08.754Z,6.57
2019-03-26T12:22:37.265Z,8.20
2019-03-26T12:25:07.109Z,7.70
2019-03-26T12:33:32.422Z,8.50
2019-03-26T12:42:35.774Z,8.00
2019-03-26T12:45:07.205Z,7.80
2019-03-26T12:47:35.770Z,8.10
2019-03-26T12:50:06.753Z,8.23
2019-03-26T12:52:35.158Z,8.00
2019-03-26T12:55:03.785Z,8.27
2019-03-26T12:57:32.142Z,8.47
2019-03-26T13:00:00.578Z,8.53
2019-03-26T13:02:29.148Z,8.80
2019-03-26T13:04:58.597Z,8.10
2019-03-26T13:07:27.070Z,8.00
2019-03-26T13:09:55.560Z,9.60
2019-03-26T13:12:23.954Z,8.27
2019-03-26T13:14:52.369Z,8.87
2019-03-26T13:17:20.825Z,9.80
2019-03-26T13:22:17.475Z,11.03
2019-03-26T13:24:45.866Z,11.00
2019-03-26T13:27:14.351Z,11.20
2019-03-26T13:29:42.796Z,11.97
2019-03-26T13:32:13.009Z,10.93
2019-03-26T13:34:41.362Z,9.50
2019-03-26T13:37:09.778Z,10.33
2019-03-26T13:39:38.227Z,10.20
2019-03-26T13:42:06.703Z,9.90
2019-03-26T13:44:35.193Z,9.63
2019-03-26T13:47:03.696Z,10.00
2019-03-26T13:49:32.130Z,10.30
2019-03-26T13:52:00.559Z,10.83
2019-03-26T13:54:28.951Z,9.83
2019-03-26T13:56:57.429Z,10.37
2019-03-26T13:59:25.845Z,10.07
2019-03-26T14:01:54.246Z,10.70
2019-03-26T14:04:22.673Z,10.53
2019-03-26T14:06:52.543Z,10.80
2019-03-26T14:09:21.342Z,10.60
2019-03-26T14:11:49.836Z,10.53
2019-03-26T14:14:18.262Z,10.50
2019-03-26T14:16:46.676Z,10.47
2019-03-26T14:19:15.148Z,11.93
2019-03-26T14:21:43.542Z,10.40
2019-03-26T14:24:13.476Z,10.13
2019-03-26T14:26:42.024Z,10.13
2019-03-26T14:29:10.639Z,10.60
2019-03-26T14:31:39.041Z,9.87
2019-03-26T14:34:07.486Z,10.97
2019-03-26T14:36:35.959Z,11.20
2019-03-26T14:39:07.452Z,9.43
2019-03-26T14:41:35.869Z,10.70
2019-03-26T14:44:04.357Z,10.37
2019-03-26T14:46:32.791Z,9.77
2019-03-26T14:49:01.264Z,10.50
2019-03-26T14:51:29.700Z,10.47
2019-03-26T14:53:58.132Z,10.33
2019-03-26T14:56:26.580Z,10.67
2019-03-26T14:58:54.980Z,11.93
2019-03-26T15:01:23.488Z,11.80
2019-03-26T15:03:51.934Z,11.70
2019-03-26T15:06:20.406Z,11.73
2019-03-26T15:08:48.970Z,10.80
2019-03-26T15:11:17.399Z,10.67
2019-03-26T15:13:49.236Z,10.57
2019-03-26T15:16:16.076Z,10.83
2019-03-26T15:18:44.569Z,9.97
2019-03-26T15:21:13.071Z,11.27
2019-03-26T15:23:41.498Z,11.97
2019-03-26T15:26:10.010Z,11.80
2019-03-26T15:28:38.434Z,11.40
2019-03-26T15:31:06.971Z,13.10
2019-03-26T15:33:35.437Z,11.67
2019-03-26T15:36:04.004Z,11.50
2019-03-26T15:38:32.463Z,11.33
2019-03-26T15:41:20.950Z,10.90
2019-03-26T15:43:39.794Z,10.47
2019-03-26T15:46:11.494Z,11.23
2019-03-26T15:48:39.918Z,11.40
2019-03-26T15:51:08.409Z,11.77
2019-03-26T15:53:36.852Z,11.07
2019-03-26T15:56:05.408Z,10.10
2019-03-26T15:58:33.828Z,10.50
2019-03-26T16:01:02.336Z,9.70
2019-03-26T16:03:30.794Z,9.97
2019-03-26T16:05:59.194Z,10.87
2019-03-26T16:08:27.683Z,10.97
2019-03-26T16:10:56.182Z,11.90
2019-03-26T16:13:24.612Z,11.07
2019-03-26T16:15:53.042Z,11.23
2019-03-26T16:18:21.474Z,10.80
2019-03-26T16:20:49.882Z,10.47
2019-03-26T16:23:18.331Z,11.40
2019-03-26T16:25:46.727Z,11.53
2019-03-26T16:28:15.160Z,10.67
2019-03-26T16:30:43.559Z,11.07
2019-03-26T16:33:12.077Z,11.60
2019-03-26T16:35:40.677Z,11.23
2019-03-26T16:38:09.196Z,10.57
2019-03-26T16:40:38.819Z,11.70
2019-03-26T16:43:07.213Z,12.10
2019-03-26T16:45:35.622Z,11.13
2019-03-26T16:48:04.115Z,10.60
2019-03-26T16:50:32.650Z,11.17
2019-03-26T16:53:01.057Z,11.60
2019-03-26T16:55:29.463Z,10.63
2019-03-26T16:57:58.223Z,11.83
2019-03-26T17:00:31.278Z,10.87
2019-03-26T17:03:00.429Z,12.67
2019-03-26T17:05:28.962Z,11.80
2019-03-26T17:07:57.496Z,9.70
2019-03-26T17:10:25.898Z,10.30
2019-03-26T17:12:54.327Z,10.53
2019-03-26T17:15:22.820Z,10.17
2019-03-26T17:17:51.234Z,9.47
2019-03-26T17:20:19.681Z,12.03
2019-03-26T17:22:48.088Z,12.10
2019-03-26T17:25:16.509Z,10.47
2019-03-26T17:27:44.997Z,11.57
2019-03-26T17:30:13.673Z,11.80
2019-03-26T17:32:42.079Z,12.33
2019-03-26T17:35:10.646Z,16.10
2019-03-26T17:37:39.055Z,14.33
2019-03-26T17:40:07.621Z,13.17
2019-03-26T17:42:36.094Z,13.07
2019-03-26T17:45:06.454Z,13.63
2019-03-26T17:47:35.038Z,11.97
2019-03-26T17:50:04.613Z,11.10
2019-03-26T17:52:33.021Z,10.57
2019-03-26T17:55:01.437Z,10.40
2019-03-26T17:57:29.865Z,11.60
2019-03-26T17:59:58.349Z,9.63
2019-03-26T18:02:26.860Z,10.97
2019-03-26T18:04:55.803Z,10.47
2019-03-26T18:07:24.295Z,10.23
2019-03-26T18:09:52.713Z,11.10
2019-03-26T18:12:30.637Z,11.57
2019-03-26T18:14:51.327Z,15.73
2019-03-26T18:17:19.737Z,12.97
2019-03-26T18:19:48.138Z,14.80
2019-03-26T18:22:16.585Z,12.67
2019-03-26T18:24:44.978Z,13.17
2019-03-26T18:27:13.393Z,16.27
2019-03-26T18:29:41.822Z,16.57
2019-03-26T18:32:10.249Z,14.77
2019-03-26T18:34:38.661Z,14.73
2019-03-26T18:37:07.146Z,14.63
2019-03-26T18:39:35.593Z,18.40
2019-03-26T18:42:04.141Z,17.23
2019-03-26T18:44:32.591Z,18.10
2019-03-26T18:47:01.051Z,17.77
2019-03-26T18:49:29.469Z,17.50
2019-03-26T18:51:57.996Z,16.97
2019-03-26T18:54:26.410Z,16.40
2019-03-26T18:56:54.836Z,17.77
2019-03-26T18:59:23.303Z,19.07
2019-03-26T19:01:51.732Z,18.43
2019-03-26T19:04:20.176Z,18.80
2019-03-26T19:06:48.639Z,18.40
2019-03-26T19:09:17.040Z,18.43
2019-03-26T19:11:45.473Z,18.17
2019-03-26T19:14:13.859Z,17.07
2019-03-26T19:16:42.324Z,16.97
2019-03-26T19:19:10.763Z,23.20
2019-03-26T19:21:39.233Z,24.30
2019-03-26T19:24:07.657Z,21.13
2019-03-26T19:26:36.086Z,19.70
2019-03-26T19:29:04.597Z,19.10
2019-03-26T19:31:32.996Z,19.47
2019-03-26T19:34:01.414Z,21.67
2019-03-26T19:36:29.865Z,24.57
2019-03-26T19:38:58.419Z,29.07
2019-03-26T19:41:26.943Z,27.17
2019-03-26T19:43:55.416Z,21.97
2019-03-26T19:46:23.909Z,17.50
2019-03-26T19:48:52.299Z,18.10
2019-03-26T19:51:20.751Z,14.93
2019-03-26T19:53:49.177Z,14.53
2019-03-26T19:56:17.695Z,14.20
2019-03-26T19:58:46.146Z,18.67
2019-03-26T20:01:14.646Z,17.33
2019-03-26T20:03:43.153Z,16.43
2019-03-26T20:06:13.733Z,19.03
2019-03-26T20:08:41.876Z,19.93
2019-03-26T20:11:10.390Z,17.53
2019-03-26T20:13:38.917Z,17.07
2019-03-26T20:16:07.440Z,18.20
2019-03-26T20:18:35.853Z,17.20
2019-03-26T20:21:04.591Z,16.30
2019-03-26T20:23:33.156Z,17.93
2019-03-26T20:26:01.625Z,21.30
2019-03-26T20:28:30.020Z,17.17
2019-03-26T20:30:58.490Z,16.37
2019-03-26T20:33:26.915Z,16.57
2019-03-26T20:35:55.327Z,17.17
2019-03-26T20:38:23.747Z,18.33
2019-03-26T20:40:52.408Z,19.30
2019-03-26T20:43:20.839Z,19.30
2019-03-26T20:45:49.290Z,20.60
2019-03-26T20:48:17.931Z,19.47
2019-03-26T20:50:46.444Z,19.90
2019-03-26T20:53:14.961Z,18.87
2019-03-26T20:55:53.860Z,18.23
2019-03-26T20:58:13.705Z,18.93
2019-03-26T21:03:35.031Z,18.53
2019-03-26T21:06:03.615Z,18.60
2019-03-26T21:08:32.092Z,18.80
2019-03-26T21:11:00.657Z,19.70
2019-03-26T21:13:29.124Z,17.47
2019-03-26T21:15:57.825Z,19.30
2019-03-26T21:18:26.284Z,19.50
2019-03-26T21:20:54.776Z,18.07
2019-03-26T21:23:23.374Z,17.90
2019-03-26T21:25:51.849Z,17.97
2019-03-26T21:28:20.320Z,18.70
2019-03-26T21:30:48.870Z,16.93
2019-03-26T21:33:17.296Z,15.97
2019-03-26T21:35:45.810Z,19.50
2019-03-26T21:38:14.292Z,19.07
2019-03-26T21:40:42.766Z,20.53
2019-03-26T21:43:11.251Z,17.63
2019-03-26T21:45:40.321Z,16.97
2019-03-26T21:48:09.096Z,16.57
2019-03-26T21:50:37.681Z,16.20
2019-03-26T21:53:06.236Z,15.97
2019-03-26T21:55:34.796Z,16.43
2019-03-26T21:58:03.555Z,16.07
2019-03-26T22:00:31.995Z,16.87
2019-03-26T22:03:00.533Z,16.40
2019-03-26T22:05:28.966Z,21.80
2019-03-26T22:07:57.454Z,19.13
2019-03-26T22:10:25.916Z,16.60
2019-03-26T22:12:54.331Z,14.53
2019-03-26T22:15:22.823Z,14.47
2019-03-26T22:17:51.254Z,12.77
2019-03-26T22:20:19.826Z,12.83
2019-03-26T22:22:48.278Z,12.97
2019-03-26T22:25:16.853Z,13.83
2019-03-26T22:27:45.293Z,12.53
2019-03-26T22:30:14.451Z,13.57
2019-03-26T22:32:42.868Z,13.77
2019-03-26T22:35:11.742Z,14.43
2019-03-26T22:37:40.229Z,13.67
2019-03-26T22:40:09.297Z,14.20
2019-03-26T22:42:37.782Z,16.47
2019-03-26T22:45:08.868Z,19.10
2019-03-26T22:47:38.755Z,18.43
2019-03-26T22:50:08.601Z,18.03
2019-03-26T22:52:37.157Z,16.40
2019-03-26T22:55:07.794Z,17.50
2019-03-26T22:57:36.383Z,17.43
2019-03-26T23:00:08.113Z,17.50
2019-03-26T23:02:36.620Z,18.97
2019-03-26T23:05:06.914Z,18.57
2019-03-26T23:07:35.399Z,16.17
2019-03-26T23:10:04.855Z,15.73
2019-03-26T23:12:33.278Z,16.10
2019-03-26T23:15:01.879Z,15.27
2019-03-26T23:17:30.359Z,15.80
2019-03-26T23:19:58.772Z,17.37
2019-03-26T23:22:27.188Z,16.07
2019-03-26T23:24:55.601Z,16.47
2019-03-26T23:27:24.016Z,16.27
2019-03-26T23:29:52.414Z,16.70
2019-03-26T23:32:20.849Z,16.30
2019-03-26T23:34:49.318Z,16.60
2019-03-26T23:37:17.737Z,16.50
2019-03-26T23:39:46.149Z,16.53
2019-03-26T23:42:14.561Z,16.93
2019-03-26T23:44:43.058Z,16.67
2019-03-26T23:47:11.464Z,15.67
2019-03-26T23:49:39.900Z,16.47
2019-03-26T23:52:08.403Z,16.03
2019-03-26T23:54:36.790Z,16.63
2019-03-26T23:57:05.184Z,16.07
2019-03-26T23:59:33.606Z,16.43
